LFBX

Périgueux-Bassillac Airport

Airport
ICAO code
LFBX
IATA Code
PGX
Summary
ICAO Region
EUR
ICAO Territory
Location

, Aquitaine

Serving
Perigueux
Elevation
328 ft
Coordinates
45° 11' 53" N , 0° 48' 56" E
Metar
LFBX 222000Z AUTO 00000KT 9000 NSC 13/13 Q1017

Runways

Designator Length Width Surface Rops
12/30 1750 30 ASP No/No

Airport map

Aerial View

SKYbrary Partners:

Safety knowledge contributed by: